Time;durP1;ratioP1;P1;durP2;ratioP2;P2;SDS_P1;SDS_P2;PMS_P1;PMS_P2;Temp;Humidity;BMP_temperature;BMP_pressure;BME280_temperature;BME280_humidity;BME280_pressure;Samples;Min_cycle;Max_cycle;Signal;HPM_P1;HPM_P2
2023/03/29 00:00:37;;;;;;;1.70;1.20;;;;;;;-0.41;81.66;98562.67;106671;1255;69619;-79
2023/03/29 00:03:06;;;;;;;1.90;1.30;;;;;;;-0.43;81.53;98568.89;106627;1257;72363;-77
2023/03/29 00:05:37;;;;;;;2.20;1.30;;;;;;;-0.51;81.22;98565.92;106303;1257;60450;-75
2023/03/29 00:08:07;;;;;;;2.90;1.30;;;;;;;-0.52;81.10;98569.68;106110;1259;60703;-78
2023/03/29 00:10:36;;;;;;;1.40;1.20;;;;;;;-0.45;81.17;98570.16;105972;1257;74865;-77
2023/03/29 00:13:05;;;;;;;3.90;1.60;;;;;;;-0.48;80.89;98564.85;106046;1257;71247;-79
2023/03/29 00:15:34;;;;;;;1.60;1.10;;;;;;;-0.57;81.27;98563.33;106083;1257;72965;-78
2023/03/29 00:18:05;;;;;;;3.70;1.60;;;;;;;-0.62;81.40;98562.27;105980;1257;62018;-79
2023/03/29 00:20:35;;;;;;;2.50;1.40;;;;;;;-0.54;81.33;98561.54;105986;1257;60522;-79
2023/03/29 00:23:06;;;;;;;3.10;1.30;;;;;;;-0.58;81.75;98554.16;106019;1260;73861;-78
2023/03/29 00:25:35;;;;;;;2.20;1.10;;;;;;;-0.63;81.89;98554.70;105961;1259;70323;-79
2023/03/29 00:28:03;;;;;;;3.20;1.70;;;;;;;-0.55;81.75;98556.20;105938;1256;72675;-80
2023/03/29 00:30:31;;;;;;;4.70;2.30;;;;;;;-0.55;82.02;98560.73;106082;1261;60397;-77
2023/03/29 00:33:03;;;;;;;3.20;1.40;;;;;;;-0.61;82.10;98568.63;106105;1257;61556;-77
2023/03/29 00:35:33;;;;;;;1.40;1.10;;;;;;;-0.59;81.77;98571.61;106156;1262;74232;-78
2023/03/29 00:38:02;;;;;;;1.90;1.40;;;;;;;-0.52;81.51;98571.22;106147;1257;71527;-78
2023/03/29 00:40:32;;;;;;;3.30;1.20;;;;;;;-0.54;81.46;98572.30;106222;1259;72674;-78
2023/03/29 00:43:00;;;;;;;2.10;1.30;;;;;;;-0.63;81.69;98569.55;105880;1257;60506;-75
2023/03/29 00:45:34;;;;;;;1.30;1.00;;;;;;;-0.62;81.54;98571.83;105970;1256;61622;-75
2023/03/29 00:48:12;;;;;;;2.30;1.20;;;;;;;-0.57;81.81;98563.66;106120;1257;72234;-78
2023/03/29 00:50:46;;;;;;;2.50;1.40;;;;;;;-0.65;81.17;98568.85;105858;1262;69685;-75
2023/03/29 00:53:36;;;;;;;3.30;2.00;;;;;;;-0.78;80.86;98567.06;105798;1259;181543;-77
2023/03/29 00:58:03;;;;;;;1.60;1.10;;;;;;;-0.75;81.08;98566.64;103793;1295;614399;-73
2023/03/29 01:00:37;;;;;;;4.90;3.30;;;;;;;-0.78;81.59;98568.14;106060;1267;59697;-76
2023/03/29 01:03:07;;;;;;;6.60;3.30;;;;;;;-0.83;81.46;98577.58;106332;1267;60118;-74
2023/03/29 01:05:38;;;;;;;3.70;2.60;;;;;;;-0.81;81.37;98585.23;106473;1267;70133;-72
2023/03/29 01:08:26;;;;;;;3.70;1.80;;;;;;;-0.69;81.13;98586.00;105894;1272;70687;-73
2023/03/29 01:11:06;;;;;;;3.90;2.00;;;;;;;-0.70;81.05;98600.36;105959;1260;183347;-74
2023/03/29 01:13:39;;;;;;;2.40;1.40;;;;;;;-0.74;81.47;98601.39;105911;1258;62151;-75
2023/03/29 01:16:07;;;;;;;2.30;1.60;;;;;;;-0.65;80.83;98612.14;105778;1258;61371;-74
2023/03/29 01:18:34;;;;;;;4.40;1.80;;;;;;;-0.67;81.06;98618.89;106323;1257;72145;-76
2023/03/29 01:21:13;;;;;;;2.30;1.30;;;;;;;-0.69;81.51;98624.81;105944;1260;70169;-73
2023/03/29 01:23:49;;;;;;;2.60;1.40;;;;;;;-0.64;81.04;98634.10;106252;1257;73787;-74
2023/03/29 01:26:28;;;;;;;2.50;1.60;;;;;;;-0.54;80.51;98636.80;105636;1257;61777;-73
2023/03/29 01:29:02;;;;;;;1.50;1.10;;;;;;;-0.58;80.56;98646.48;105809;1260;60256;-72
2023/03/29 01:31:31;;;;;;;2.50;1.30;;;;;;;-0.64;80.44;98636.02;105696;1257;74081;-72
2023/03/29 01:34:08;;;;;;;1.60;1.10;;;;;;;-0.57;80.40;98638.29;105604;1258;68125;-74
2023/03/29 01:36:48;;;;;;;1.90;1.30;;;;;;;-0.60;80.53;98641.98;105652;1256;72048;-73
2023/03/29 01:39:15;;;;;;;2.10;1.40;;;;;;;-0.68;80.46;98648.14;105708;1257;59730;-73
2023/03/29 01:41:56;;;;;;;3.90;1.50;;;;;;;-0.70;80.43;98653.70;105690;1257;61254;-73
2023/03/29 01:44:29;;;;;;;2.00;1.40;;;;;;;-0.63;80.47;98653.48;105769;1260;73042;-75
2023/03/29 01:47:22;;;;;;;2.50;1.50;;;;;;;-0.64;80.51;98656.05;105867;1256;71556;-76
2023/03/29 01:49:57;;;;;;;3.00;1.50;;;;;;;-0.69;80.66;98662.74;105535;1257;71386;-79
2023/03/29 01:52:27;;;;;;;2.80;1.90;;;;;;;-0.66;80.79;98660.90;105693;1257;60794;-72
2023/03/29 01:55:01;;;;;;;2.40;1.60;;;;;;;-0.55;80.68;98669.40;105692;1257;61394;-75
2023/03/29 01:57:30;;;;;;;2.20;1.10;;;;;;;-0.55;81.02;98678.33;105738;1262;73257;-73
2023/03/29 01:59:56;;;;;;;1.60;1.30;;;;;;;-0.59;81.18;98679.79;105647;1263;70194;-74
2023/03/29 02:02:23;;;;;;;1.40;1.20;;;;;;;-0.66;80.65;98688.36;105646;1260;72836;-72
2023/03/29 02:04:52;;;;;;;2.60;1.10;;;;;;;-0.64;80.93;98684.75;105708;1256;59725;-72
2023/03/29 02:07:23;;;;;;;2.20;1.30;;;;;;;-0.63;81.27;98689.13;105646;1256;60308;-73
2023/03/29 02:09:51;;;;;;;3.30;1.70;;;;;;;-0.68;81.17;98689.71;105385;1258;72213;-73
2023/03/29 02:12:18;;;;;;;2.20;1.30;;;;;;;-0.70;81.41;98699.47;105392;1258;69487;-73
2023/03/29 02:14:45;;;;;;;2.20;1.50;;;;;;;-0.60;81.40;98701.13;105747;1263;71613;-76
2023/03/29 02:17:19;;;;;;;2.20;1.30;;;;;;;-0.53;80.57;98710.99;105554;1256;59786;-76
2023/03/29 02:19:49;;;;;;;;;;;;;;;-0.60;80.84;98719.18;105776;1257;59912;-75
2023/03/29 02:22:24;;;;;;;2.40;1.80;;;;;;;-0.69;81.32;98724.58;105718;1258;71023;-75
2023/03/29 02:24:53;;;;;;;2.20;1.10;;;;;;;-0.62;81.24;98734.80;105545;1257;71133;-74
2023/03/29 02:27:20;;;;;;;1.90;1.40;;;;;;;-0.50;81.48;98735.83;105481;1257;71887;-74
2023/03/29 02:29:47;;;;;;;2.20;1.40;;;;;;;-0.47;81.46;98745.13;105387;1258;60463;-73
2023/03/29 02:32:35;;;;;;;2.50;1.40;;;;;;;-0.49;81.19;98749.66;105598;1257;59615;-73
2023/03/29 02:35:21;;;;;;;1.50;1.20;;;;;;;-0.54;81.22;98751.11;105640;1257;72280;-74
2023/03/29 02:37:48;;;;;;;1.50;1.20;;;;;;;-0.51;80.23;98752.92;105510;1256;71095;-76
2023/03/29 02:40:16;;;;;;;1.60;1.20;;;;;;;-0.59;80.87;98753.70;105462;1262;73906;-74
2023/03/29 02:42:43;;;;;;;1.90;1.20;;;;;;;-0.66;80.77;98757.08;105524;1257;60309;-74
2023/03/29 02:45:18;;;;;;;2.00;1.40;;;;;;;-0.67;80.51;98761.83;105551;1258;61201;-76
2023/03/29 02:47:53;;;;;;;4.10;1.60;;;;;;;-0.63;80.67;98756.95;105520;1263;74036;-75
2023/03/29 02:50:22;;;;;;;4.00;1.60;;;;;;;-0.65;81.32;98756.63;105635;1260;69702;-76
2023/03/29 02:52:52;;;;;;;1.40;1.20;;;;;;;-0.69;80.94;98759.39;105602;1256;73817;-78
2023/03/29 02:55:21;;;;;;;3.10;1.70;;;;;;;-0.69;81.07;98760.42;105714;1256;60047;-75
2023/03/29 02:57:53;;;;;;;2.20;1.30;;;;;;;-0.62;80.66;98759.88;105823;1257;59724;-71
2023/03/29 03:00:22;;;;;;;2.20;1.50;;;;;;;-0.66;80.18;98759.52;105533;1258;71100;-75
2023/03/29 03:02:50;;;;;;;2.80;1.80;;;;;;;-0.76;80.20;98762.00;105777;1257;69974;-74
2023/03/29 03:05:26;;;;;;;2.70;1.50;;;;;;;-0.82;80.62;98765.11;105567;1256;72686;-75
2023/03/29 03:07:53;;;;;;;3.50;1.30;;;;;;;-0.73;80.46;98759.54;105543;1257;62080;-72
2023/03/29 03:10:19;;;;;;;2.20;1.30;;;;;;;-0.68;80.25;98763.30;105496;1263;61511;-74
2023/03/29 03:12:46;;;;;;;2.80;1.40;;;;;;;-0.74;80.29;98764.60;105572;1258;72930;-73
2023/03/29 03:15:14;;;;;;;4.30;1.40;;;;;;;-0.78;80.48;98769.66;105545;1256;69086;-71
2023/03/29 03:17:41;;;;;;;1.90;1.20;;;;;;;-0.71;80.19;98772.37;105528;1258;73783;-73
2023/03/29 03:20:11;;;;;;;3.00;1.70;;;;;;;-0.65;80.29;98770.14;105556;1256;59952;-74
2023/03/29 03:22:48;;;;;;;2.70;1.30;;;;;;;-0.66;80.72;98769.08;105604;1258;62400;-75
2023/03/29 03:25:19;;;;;;;2.40;1.20;;;;;;;-0.65;80.59;98773.66;105626;1260;71159;-73
2023/03/29 03:27:47;;;;;;;3.70;1.50;;;;;;;-0.57;80.16;98773.72;105589;1257;70043;-75
2023/03/29 03:30:15;;;;;;;1.70;1.40;;;;;;;-0.59;79.28;98770.77;105571;1257;72284;-72
2023/03/29 03:33:05;;;;;;;2.40;1.40;;;;;;;-0.69;79.91;98774.86;105592;1258;59828;-76
2023/03/29 03:35:48;;;;;;;1.80;1.20;;;;;;;-0.63;79.83;98786.22;105552;1256;59733;-74
2023/03/29 03:38:18;;;;;;;2.00;1.60;;;;;;;-0.58;79.81;98792.94;105492;1257;71008;-71
2023/03/29 03:40:53;;;;;;;3.70;2.00;;;;;;;-0.62;79.75;98797.63;105633;1258;71186;-72
2023/03/29 03:43:20;;;;;;;2.40;1.80;;;;;;;-0.66;79.96;98792.39;105630;1258;71810;-74
2023/03/29 03:45:48;;;;;;;2.30;1.40;;;;;;;-0.59;79.85;98791.27;105816;1257;60911;-75
2023/03/29 03:48:17;;;;;;;2.70;1.70;;;;;;;-0.60;79.68;98785.30;105656;1256;61334;-75
2023/03/29 03:50:52;;;;;;;4.40;1.80;;;;;;;-0.67;79.70;98788.46;105716;1263;72928;-74
2023/03/29 03:53:20;;;;;;;3.60;1.40;;;;;;;-0.73;79.39;98795.52;105620;1258;69222;-74
2023/03/29 03:56:19;;;;;;;5.50;3.20;;;;;;;-0.67;79.50;98804.25;105565;1256;72918;-74
2023/03/29 03:59:06;;;;;;;3.40;1.90;;;;;;;-0.71;79.13;98807.88;105612;1257;59800;-75
2023/03/29 04:01:44;;;;;;;3.40;1.40;;;;;;;-0.78;79.42;98810.38;105585;1257;59729;-74
2023/03/29 04:04:13;;;;;;;2.80;1.60;;;;;;;-0.78;79.18;98815.34;105614;1259;72536;-76
2023/03/29 04:06:49;;;;;;;2.90;1.70;;;;;;;-0.74;78.97;98815.09;105586;1262;70421;-72
2023/03/29 04:09:47;;;;;;;4.30;2.30;;;;;;;-0.81;79.68;98820.63;105646;1257;73673;-72
2023/03/29 04:12:23;;;;;;;3.50;1.80;;;;;;;-0.78;79.61;98823.39;105689;1257;62163;-73
2023/03/29 04:14:50;;;;;;;3.50;1.70;;;;;;;-0.70;79.56;98822.55;105703;1256;59693;-75
2023/03/29 04:17:22;;;;;;;2.00;1.70;;;;;;;-0.72;79.78;98825.35;105659;1262;73673;-75
2023/03/29 04:19:54;;;;;;;2.90;1.80;;;;;;;-0.77;79.43;98828.85;105680;1256;69686;-77
2023/03/29 04:22:24;;;;;;;4.80;1.80;;;;;;;-0.80;79.11;98830.26;105523;1263;72890;-75
2023/03/29 04:24:51;;;;;;;4.10;2.10;;;;;;;-0.76;78.93;98835.57;105719;1256;59812;-74
2023/03/29 04:27:53;;;;;;;3.40;2.00;;;;;;;-0.82;79.44;98834.83;105286;1262;59623;-76
2023/03/29 04:30:39;;;;;;;3.40;2.00;;;;;;;-0.83;79.89;98833.47;105574;1257;74094;-76
2023/03/29 04:33:12;;;;;;;3.10;1.80;;;;;;;-0.73;79.40;98837.99;105570;1257;69360;-72
2023/03/29 04:35:42;;;;;;;2.70;1.90;;;;;;;-0.75;79.31;98844.36;105471;1262;71733;-74
2023/03/29 04:38:12;;;;;;;3.10;2.00;;;;;;;-0.82;79.39;98850.42;105605;1260;60539;-76
2023/03/29 04:40:40;;;;;;;3.40;1.80;;;;;;;-0.90;79.20;98853.69;105645;1259;61057;-74
2023/03/29 04:43:13;;;;;;;2.80;1.50;;;;;;;-0.88;79.02;98859.83;105685;1262;72350;-78
2023/03/29 04:45:48;;;;;;;2.70;1.70;;;;;;;-0.84;78.38;98861.91;105660;1260;70732;-78
2023/03/29 04:48:32;;;;;;;3.10;1.90;;;;;;;-0.92;78.34;98866.35;105543;1261;72128;-73
2023/03/29 04:51:01;;;;;;;3.40;2.20;;;;;;;-1.01;78.61;98864.90;105634;1257;59664;-77
2023/03/29 04:53:28;;;;;;;3.00;1.70;;;;;;;-1.02;78.63;98867.08;105496;1256;61636;-73
2023/03/29 04:55:58;;;;;;;2.50;1.90;;;;;;;-0.93;78.73;98864.39;105674;1257;74103;-74
2023/03/29 04:58:44;;;;;;;3.00;2.30;;;;;;;-0.96;79.43;98863.17;105633;1256;69621;-75
2023/03/29 05:01:11;;;;;;;4.50;2.40;;;;;;;-1.03;79.45;98863.82;105663;1257;71406;-74
2023/03/29 05:03:45;;;;;;;3.60;2.10;;;;;;;-1.00;79.19;98861.20;105643;1260;60288;-73
2023/03/29 05:06:23;;;;;;;3.80;2.30;;;;;;;-0.88;79.31;98866.55;105518;1257;60246;-74
2023/03/29 05:08:52;;;;;;;4.40;2.60;;;;;;;-0.90;79.18;98865.48;105771;1256;72416;-73
2023/03/29 05:11:30;;;;;;;5.00;2.60;;;;;;;-0.97;79.08;98868.48;105620;1257;71453;-74
2023/03/29 05:14:01;;;;;;;5.50;2.60;;;;;;;-1.04;78.90;98872.65;105738;1260;70833;-76
2023/03/29 05:16:29;;;;;;;3.00;2.00;;;;;;;-1.04;78.55;98874.68;105654;1257;60516;-74
2023/03/29 05:18:56;;;;;;;4.20;2.00;;;;;;;-1.01;78.92;98871.48;105645;1258;60492;-76
2023/03/29 05:21:29;;;;;;;3.30;2.00;;;;;;;-1.04;79.28;98874.89;105560;1260;74702;-73
2023/03/29 05:23:58;;;;;;;3.50;1.90;;;;;;;-1.08;79.29;98880.20;105625;1256;71329;-75
2023/03/29 05:27:01;;;;;;;3.70;2.10;;;;;;;-1.04;79.18;98881.28;105208;1263;74127;-74
2023/03/29 05:29:31;;;;;;;3.70;2.00;;;;;;;-0.93;79.56;98880.83;105453;1259;60539;-75
2023/03/29 05:32:19;;;;;;;3.20;2.00;;;;;;;-0.90;79.53;98883.38;105531;1261;60271;-76
2023/03/29 05:34:46;;;;;;;3.60;2.10;;;;;;;-0.93;79.45;98883.98;105774;1256;73756;-74
2023/03/29 05:37:14;;;;;;;5.60;1.80;;;;;;;-0.92;79.55;98887.57;105647;1256;71332;-75
2023/03/29 05:40:08;;;;;;;4.00;2.10;;;;;;;-0.80;79.39;98889.44;105748;1257;71631;-76
2023/03/29 05:42:50;;;;;;;4.20;2.00;;;;;;;-0.79;79.05;98891.25;105659;1260;60787;-75
2023/03/29 05:45:17;;;;;;;3.40;2.30;;;;;;;-0.85;79.28;98888.40;105688;1258;60519;-76
2023/03/29 05:47:45;;;;;;;3.60;2.30;;;;;;;-0.89;78.81;98893.05;105873;1256;73789;-77
2023/03/29 05:50:12;;;;;;;6.10;2.80;;;;;;;-0.85;78.43;98895.48;105615;1256;70391;-76
2023/03/29 05:52:39;;;;;;;4.30;2.80;;;;;;;-0.88;78.65;98898.75;105550;1256;73204;-76
2023/03/29 05:55:07;;;;;;;4.20;2.70;;;;;;;-0.98;78.55;98900.31;105955;1256;60432;-75
2023/03/29 05:57:36;;;;;;;2.60;1.80;;;;;;;-1.03;79.11;98906.98;106471;1257;61091;-75
2023/03/29 06:00:24;;;;;;;3.70;2.20;;;;;;;-0.95;79.25;98908.83;105746;1259;73339;-76
2023/03/29 06:02:55;;;;;;;4.40;2.30;;;;;;;-0.82;78.74;98913.92;105663;1256;70302;-72
2023/03/29 06:05:45;;;;;;;2.80;1.90;;;;;;;-0.90;78.11;98917.47;105769;1259;72709;-72
2023/03/29 06:08:20;;;;;;;5.60;2.70;;;;;;;-1.01;78.12;98915.31;105609;1256;60415;-74
2023/03/29 06:11:05;;;;;;;3.50;2.40;;;;;;;-1.07;78.49;98921.80;105652;1256;61115;-72
2023/03/29 06:13:53;;;;;;;3.50;2.50;;;;;;;-0.96;78.81;98922.80;105492;1256;74150;-71
2023/03/29 06:16:21;;;;;;;3.70;2.50;;;;;;;-0.96;78.89;98933.77;105645;1256;69407;-72
2023/03/29 06:18:54;;;;;;;4.20;2.80;;;;;;;-1.02;79.04;98930.47;105564;1256;72979;-72
2023/03/29 06:21:21;;;;;;;4.30;2.60;;;;;;;-1.00;79.38;98935.95;105540;1256;62050;-73
2023/03/29 06:23:51;;;;;;;4.10;2.60;;;;;;;-0.85;79.50;98941.75;105737;1256;60412;-71
2023/03/29 06:26:18;;;;;;;3.80;2.60;;;;;;;-0.76;78.97;98946.98;105575;1258;75063;-71
2023/03/29 06:28:47;;;;;;;4.30;2.80;;;;;;;-0.80;78.62;98947.13;105701;1260;68815;-71
2023/03/29 06:31:19;;;;;;;3.00;2.70;;;;;;;-0.86;78.51;98950.21;105750;1260;72805;-72
2023/03/29 06:33:50;;;;;;;4.90;3.00;;;;;;;-0.91;79.03;98958.40;105643;1256;60661;-71
2023/03/29 06:36:36;;;;;;;3.60;2.70;;;;;;;-0.79;79.28;98966.56;105777;1256;60419;-73
2023/03/29 06:39:04;;;;;;;3.70;2.30;;;;;;;-0.71;78.65;98968.59;105698;1257;75114;-73
2023/03/29 06:42:05;;;;;;;5.50;2.90;;;;;;;-0.76;78.78;98971.86;105562;1259;69943;-70
2023/03/29 06:45:07;;;;;;;6.30;2.80;;;;;;;-0.79;79.13;98969.19;105710;1255;73723;-71
2023/03/29 06:47:36;;;;;;;3.50;2.50;;;;;;;-0.69;79.35;98966.48;105893;1254;61368;-72
2023/03/29 06:50:04;;;;;;;5.40;2.90;;;;;;;-0.54;78.95;98972.16;105553;1254;60507;-72
2023/03/29 06:52:40;;;;;;;5.00;3.20;;;;;;;-0.52;78.67;98977.79;105645;1255;72771;-74
2023/03/29 06:55:08;;;;;;;4.90;3.50;;;;;;;-0.56;78.86;98983.05;105661;1256;70498;-72
2023/03/29 06:57:38;;;;;;;6.40;2.90;;;;;;;-0.61;78.71;98986.19;105535;1256;74338;-73
2023/03/29 07:00:26;;;;;;;4.10;2.60;;;;;;;-0.59;78.59;98984.54;105717;1256;62094;-73
2023/03/29 07:03:28;;;;;;;6.70;3.20;;;;;;;-0.49;78.32;98997.01;105601;1256;60415;-72
2023/03/29 07:06:02;;;;;;;5.70;2.80;;;;;;;-0.56;78.39;99005.33;105706;1255;74380;-70
2023/03/29 07:08:30;;;;;;;5.30;2.60;;;;;;;-0.67;78.08;98999.36;105622;1256;71260;-72
2023/03/29 07:11:05;;;;;;;5.90;2.70;;;;;;;-0.68;78.40;99004.86;105633;1256;72720;-71
2023/03/29 07:13:59;;;;;;;4.30;2.70;;;;;;;-0.60;78.20;99011.38;105393;1256;60547;-72
2023/03/29 07:16:26;;;;;;;4.90;2.50;;;;;;;-0.62;78.34;99022.27;105564;1258;61299;-71
2023/03/29 07:19:08;;;;;;;4.50;2.80;;;;;;;-0.66;78.24;99025.55;105878;1257;75077;-70
2023/03/29 07:21:55;;;;;;;6.90;3.40;;;;;;;-0.71;78.39;99028.20;105863;1256;69271;-70
2023/03/29 07:24:33;;;;;;;7.30;3.40;;;;;;;-0.60;78.51;99035.58;105699;1259;70499;-70
2023/03/29 07:27:01;;;;;;;9.90;3.50;;;;;;;-0.47;78.29;99039.98;105765;1255;60439;-72
2023/03/29 07:29:31;;;;;;;7.00;3.10;;;;;;;-0.50;78.06;99044.92;105595;1256;60457;-71
2023/03/29 07:31:59;;;;;;;4.00;2.80;;;;;;;-0.57;78.41;99047.48;105702;1256;71664;-69
2023/03/29 07:34:50;;;;;;;5.20;2.60;;;;;;;-0.60;78.35;99048.93;105257;1256;71389;-72
2023/03/29 07:37:29;;;;;;;5.60;4.20;;;;;;;-0.53;77.82;99051.38;105569;1260;72815;-70
2023/03/29 07:39:56;;;;;;;6.70;3.60;;;;;;;-0.47;78.04;99062.11;105734;1262;60576;-70
2023/03/29 07:42:43;;;;;;;6.40;3.50;;;;;;;-0.52;77.76;99065.95;105714;1256;60493;-70
2023/03/29 07:45:12;;;;;;;5.80;2.90;;;;;;;-0.59;77.55;99073.23;106044;1256;75183;-79
2023/03/29 07:47:53;;;;;;;5.10;2.60;;;;;;;-0.58;77.73;99079.73;107243;1256;70241;-79
2023/03/29 07:50:20;;;;;;;5.10;2.50;;;;;;;-0.48;77.54;99082.02;107518;1256;70943;-77
2023/03/29 07:52:48;;;;;;;5.90;3.30;;;;;;;-0.49;77.14;99080.65;107505;1255;60346;-79
2023/03/29 07:55:16;;;;;;;5.30;3.20;;;;;;;-0.53;77.40;99085.83;107727;1255;60376;-78
2023/03/29 07:58:06;;;;;;;6.90;3.90;;;;;;;-0.55;77.45;99088.58;105569;1256;71776;-68
2023/03/29 08:00:34;;;;;;;7.00;3.10;;;;;;;-0.49;77.47;99090.73;105759;1256;70658;-70
2023/03/29 08:03:23;;;;;;;6.30;3.30;;;;;;;-0.37;77.33;99088.99;105583;1256;72188;-69
2023/03/29 08:05:50;;;;;;;5.50;3.20;;;;;;;-0.43;76.90;99092.89;105739;1256;60620;-70
2023/03/29 08:08:18;;;;;;;4.20;3.20;;;;;;;-0.50;77.45;99096.94;105762;1256;61114;-72
2023/03/29 08:10:52;;;;;;;5.80;3.60;;;;;;;-0.55;77.68;99101.63;105689;1257;73984;-71
2023/03/29 08:13:32;;;;;;;15.10;3.00;;;;;;;-0.45;77.83;99101.09;105673;1257;73616;-72
2023/03/29 08:16:18;;;;;;;5.60;4.00;;;;;;;-0.33;77.56;99103.29;105750;1257;72769;-71
2023/03/29 08:18:51;;;;;;;5.00;3.70;;;;;;;-0.34;77.78;99108.29;105815;1255;60431;-72
2023/03/29 08:21:25;;;;;;;7.60;3.50;;;;;;;-0.37;77.69;99110.41;105780;1255;61059;-71
2023/03/29 08:23:52;;;;;;;6.70;3.40;;;;;;;-0.39;77.44;99116.62;105757;1256;75145;-72
2023/03/29 08:26:24;;;;;;;5.30;3.20;;;;;;;-0.37;77.82;99123.27;105684;1256;68529;-71
2023/03/29 08:28:52;;;;;;;5.40;3.70;;;;;;;-0.22;77.98;99122.86;105964;1256;71757;-72
2023/03/29 08:31:19;;;;;;;6.40;3.50;;;;;;;-0.18;77.38;99121.69;105633;1256;60479;-72
2023/03/29 08:33:50;;;;;;;5.40;3.50;;;;;;;-0.25;77.09;99121.54;105643;1260;60394;-73
2023/03/29 08:36:28;;;;;;;6.90;3.60;;;;;;;-0.35;76.97;99129.07;105762;1260;72781;-72
2023/03/29 08:38:58;;;;;;;5.30;3.70;;;;;;;-0.38;77.58;99127.52;105722;1256;69909;-68
2023/03/29 08:41:57;;;;;;;6.00;3.30;;;;;;;-0.26;77.49;99129.75;105635;1256;72809;-68
2023/03/29 08:44:33;;;;;;;4.70;3.50;;;;;;;-0.22;77.47;99126.81;105690;1256;60410;-70
2023/03/29 08:47:25;;;;;;;5.60;3.70;;;;;;;-0.25;77.37;99131.05;105784;1256;60579;-70
2023/03/29 08:49:53;;;;;;;5.00;3.60;;;;;;;-0.29;77.55;99134.84;105793;1256;73467;-70
2023/03/29 08:52:29;;;;;;;5.10;3.50;;;;;;;-0.30;77.74;99137.37;105731;1256;71454;-71
2023/03/29 08:54:58;;;;;;;4.50;3.00;;;;;;;-0.20;77.31;99143.91;105702;1256;71187;-72
2023/03/29 08:57:46;;;;;;;6.90;4.70;;;;;;;-0.20;77.65;99150.69;106034;1257;60754;-73
2023/03/29 09:00:17;;;;;;;5.20;3.70;;;;;;;-0.27;77.79;99150.17;106109;1256;60432;-73
2023/03/29 09:02:46;;;;;;;5.90;4.20;;;;;;;-0.34;77.73;99152.45;106002;1256;73494;-74
2023/03/29 09:05:36;;;;;;;4.40;3.00;;;;;;;-0.32;78.33;99152.14;106083;1257;71482;-75
2023/03/29 09:08:18;;;;;;;4.50;3.10;;;;;;;-0.22;78.41;99164.06;105715;1256;72803;-73
2023/03/29 09:11:15;;;;;;;4.10;3.60;;;;;;;-0.27;78.06;99164.60;105713;1257;60557;-72
2023/03/29 09:13:48;;;;;;;8.40;3.60;;;;;;;-0.34;78.33;99159.98;105769;1256;60855;-70
2023/03/29 09:16:20;;;;;;;4.80;3.60;;;;;;;-0.40;78.08;99161.08;105769;1256;74108;-70
2023/03/29 09:18:55;;;;;;;3.40;3.00;;;;;;;-0.32;78.15;99160.98;105972;1256;70357;-71
2023/03/29 09:21:30;;;;;;;4.10;2.90;;;;;;;-0.20;78.09;99165.85;105857;1256;71636;-70
2023/03/29 09:24:00;;;;;;;4.10;3.10;;;;;;;-0.20;78.16;99169.02;105884;1256;60410;-71
2023/03/29 09:26:41;;;;;;;5.30;3.20;;;;;;;-0.20;77.69;99167.77;106016;1256;60537;-73
2023/03/29 09:29:54;;;;;;;7.20;3.60;;;;;;;-0.21;77.89;99175.14;105901;1259;73028;-73
2023/03/29 09:32:41;;;;;;;4.40;2.90;;;;;;;-0.09;77.89;99174.98;105728;1256;71198;-68
2023/03/29 09:35:17;;;;;;;4.30;3.20;;;;;;;0.01;77.29;99184.30;105686;1256;73951;-71
2023/03/29 09:37:45;;;;;;;5.80;3.40;;;;;;;-0.04;77.02;99185.38;105900;1256;60426;-72
2023/03/29 09:40:21;;;;;;;4.40;3.40;;;;;;;-0.15;76.88;99189.35;105749;1257;61616;-70
2023/03/29 09:43:11;;;;;;;4.00;3.20;;;;;;;-0.24;77.32;99188.81;105787;1259;75026;-69
2023/03/29 09:45:38;;;;;;;6.60;3.20;;;;;;;-0.23;77.60;99195.13;105832;1256;70269;-73
2023/03/29 09:48:13;;;;;;;5.60;3.70;;;;;;;-0.11;77.67;99202.98;107008;1255;73742;-71
2023/03/29 09:50:55;;;;;;;4.50;3.10;;;;;;;-0.08;77.84;99202.41;107231;1256;60359;-71
2023/03/29 09:53:40;;;;;;;6.00;3.80;;;;;;;-0.10;77.80;99208.85;106600;1255;60503;-72
2023/03/29 09:56:17;;;;;;;5.40;2.70;;;;;;;-0.15;77.10;99209.02;106620;1256;74424;-71
2023/03/29 09:58:58;;;;;;;3.90;3.00;;;;;;;-0.15;77.51;99207.12;107600;1255;69664;-73
2023/03/29 10:01:25;;;;;;;5.60;2.90;;;;;;;-0.05;77.42;99216.08;107975;1253;73664;-73
2023/03/29 10:03:55;;;;;;;4.40;3.00;;;;;;;0.00;77.68;99221.50;108671;1253;59408;-73
2023/03/29 10:06:22;;;;;;;4.10;3.20;;;;;;;-0.01;77.27;99228.55;108793;1253;60428;-73
2023/03/29 10:08:56;;;;;;;5.00;3.50;;;;;;;-0.05;77.25;99230.90;108457;1253;73710;-74
2023/03/29 10:11:33;;;;;;;4.80;3.30;;;;;;;-0.05;77.24;99233.20;108957;1252;68753;-72
2023/03/29 10:14:24;;;;;;;4.50;3.00;;;;;;;0.07;76.71;99234.02;108716;1253;73651;-71
2023/03/29 10:16:55;;;;;;;3.70;2.90;;;;;;;0.08;76.41;99241.61;107255;1252;61140;-71
2023/03/29 10:19:27;;;;;;;4.30;3.00;;;;;;;0.01;76.90;99247.35;106969;1252;60323;-71
2023/03/29 10:22:00;;;;;;;4.40;2.60;;;;;;;-0.04;76.62;99250.88;109311;1253;73868;-71
2023/03/29 10:24:27;;;;;;;5.10;3.10;;;;;;;-0.08;76.50;99250.09;108837;1257;70283;-72
2023/03/29 10:27:02;;;;;;;4.50;3.10;;;;;;;0.05;76.81;99255.27;106618;1253;72666;-72
2023/03/29 10:29:37;;;;;;;5.10;3.70;;;;;;;0.16;76.89;99257.20;106759;1253;60627;-71
2023/03/29 10:32:16;;;;;;;4.90;3.40;;;;;;;0.14;76.38;99255.09;107088;1253;60409;-70
2023/03/29 10:34:45;;;;;;;4.60;2.90;;;;;;;0.09;75.98;99260.01;106987;1253;73929;-70
2023/03/29 10:37:15;;;;;;;5.20;3.10;;;;;;;0.02;76.39;99266.27;106413;1257;71452;-71
2023/03/29 10:39:42;;;;;;;3.70;2.70;;;;;;;0.02;76.19;99264.20;106427;1258;72768;-70
2023/03/29 10:42:12;;;;;;;4.10;2.60;;;;;;;0.06;75.71;99270.69;106415;1253;60482;-73
2023/03/29 10:44:39;;;;;;;4.50;3.40;;;;;;;-0.00;75.84;99275.15;106465;1252;60533;-68
2023/03/29 10:47:15;;;;;;;4.00;2.90;;;;;;;-0.06;75.86;99275.91;106131;1255;74336;-71
2023/03/29 10:49:45;;;;;;;7.00;2.90;;;;;;;-0.10;75.81;99274.98;105888;1258;70177;-70
2023/03/29 10:52:13;;;;;;;3.90;2.70;;;;;;;-0.06;75.99;99272.56;106497;1253;73495;-71
2023/03/29 10:54:40;;;;;;;4.20;3.10;;;;;;;0.07;76.26;99279.10;107130;1253;60320;-71
2023/03/29 10:57:08;;;;;;;4.90;2.90;;;;;;;0.10;76.38;99278.89;106716;1253;60634;-72
2023/03/29 11:00:00;;;;;;;4.70;3.20;;;;;;;0.08;75.96;99282.89;106558;1256;74781;-71
2023/03/29 11:02:46;;;;;;;4.00;3.00;;;;;;;0.03;75.83;99281.02;106478;1253;70442;-70
2023/03/29 11:05:24;;;;;;;4.30;2.90;;;;;;;-0.03;76.02;99277.74;106484;1256;73360;-71
2023/03/29 11:08:22;;;;;;;3.60;3.00;;;;;;;0.04;76.41;99276.59;106197;1255;61058;-71
2023/03/29 11:10:55;;;;;;;3.80;2.50;;;;;;;0.21;75.87;99278.43;106024;1256;60391;-71
2023/03/29 11:13:30;;;;;;;6.70;3.30;;;;;;;0.25;75.60;99277.15;105998;1253;72121;-72
2023/03/29 11:16:03;;;;;;;3.60;2.80;;;;;;;0.26;76.30;99281.56;105986;1253;70638;-72
2023/03/29 11:18:44;;;;;;;3.90;3.10;;;;;;;0.31;76.13;99277.58;105939;1253;72464;-71
2023/03/29 11:21:41;;;;;;;4.30;2.80;;;;;;;0.34;75.56;99284.45;105996;1255;60402;-71
2023/03/29 11:24:38;;;;;;;4.80;2.60;;;;;;;0.48;75.69;99287.92;105962;1253;60592;-72
2023/03/29 11:27:35;;;;;;;6.60;3.00;;;;;;;0.60;75.93;99289.34;105867;1253;73053;-70
2023/03/29 11:30:35;;;;;;;4.60;2.90;;;;;;;0.63;75.67;99293.12;105872;1253;68300;-71
2023/03/29 11:33:06;;;;;;;4.40;2.60;;;;;;;0.63;75.27;99291.40;105878;1253;72672;-73
2023/03/29 11:35:42;;;;;;;3.50;2.30;;;;;;;0.60;75.02;99293.49;105983;1253;60617;-69
2023/03/29 11:38:28;;;;;;;3.20;2.40;;;;;;;0.61;74.48;99296.54;105999;1253;61618;-71
2023/03/29 11:40:57;;;;;;;3.80;2.50;;;;;;;0.72;73.83;99298.74;105956;1253;73399;-71
2023/03/29 11:43:36;;;;;;;3.50;2.70;;;;;;;0.68;73.91;99297.27;105929;1253;71058;-71
2023/03/29 11:46:20;;;;;;;4.80;3.20;;;;;;;0.62;74.60;99296.52;105961;1253;72161;-72
2023/03/29 11:48:51;;;;;;;4.40;3.00;;;;;;;0.59;74.45;99294.59;105994;1253;60547;-72
2023/03/29 11:51:21;;;;;;;3.10;2.50;;;;;;;0.57;74.64;99298.08;105987;1253;60499;-72
2023/03/29 11:53:55;;;;;;;3.40;2.00;;;;;;;0.62;74.58;99296.36;105969;1257;74628;-72
2023/03/29 11:56:31;;;;;;;5.50;2.50;;;;;;;0.73;74.23;99300.75;105955;1253;70460;-72
2023/03/29 11:59:01;;;;;;;2.70;2.20;;;;;;;0.74;73.87;99297.65;105818;1253;73492;-71
2023/03/29 12:01:41;;;;;;;2.80;2.00;;;;;;;0.71;74.13;99300.52;106220;1253;60814;-72
2023/03/29 12:04:29;;;;;;;3.00;2.10;;;;;;;0.70;74.17;99304.42;106008;1256;60838;-72